sensor_id;sensor_type;location;lat;lon;timestamp;P1;durP1;ratioP1;P2;durP2;ratioP2
68140;SDS011;54941;52.220;104.306;2022-11-25T00:02:26;12.38;;;4.43;;
68140;SDS011;54941;52.220;104.306;2022-11-25T00:05:11;11.93;;;4.50;;
68140;SDS011;54941;52.220;104.306;2022-11-25T00:07:56;8.15;;;3.38;;
68140;SDS011;54941;52.220;104.306;2022-11-25T00:10:41;8.35;;;3.83;;
68140;SDS011;54941;52.220;104.306;2022-11-25T00:13:26;9.20;;;3.72;;
68140;SDS011;54941;52.220;104.306;2022-11-25T00:16:13;8.57;;;4.05;;
68140;SDS011;54941;52.220;104.306;2022-11-25T00:19:00;8.25;;;4.22;;
68140;SDS011;54941;52.220;104.306;2022-11-25T00:21:45;15.70;;;7.13;;
68140;SDS011;54941;52.220;104.306;2022-11-25T00:24:30;11.05;;;4.68;;
68140;SDS011;54941;52.220;104.306;2022-11-25T00:27:15;7.10;;;3.80;;
68140;SDS011;54941;52.220;104.306;2022-11-25T00:30:00;6.90;;;3.25;;
68140;SDS011;54941;52.220;104.306;2022-11-25T00:32:46;7.03;;;3.55;;
68140;SDS011;54941;52.220;104.306;2022-11-25T00:35:33;7.78;;;3.80;;
68140;SDS011;54941;52.220;104.306;2022-11-25T00:38:18;10.77;;;3.80;;
68140;SDS011;54941;52.220;104.306;2022-11-25T00:41:03;8.00;;;3.55;;
68140;SDS011;54941;52.220;104.306;2022-11-25T00:43:48;6.72;;;3.13;;
68140;SDS011;54941;52.220;104.306;2022-11-25T00:46:33;11.02;;;3.45;;
68140;SDS011;54941;52.220;104.306;2022-11-25T00:49:19;7.80;;;3.22;;
68140;SDS011;54941;52.220;104.306;2022-11-25T00:52:04;9.60;;;3.63;;
68140;SDS011;54941;52.220;104.306;2022-11-25T00:54:50;7.38;;;3.22;;
68140;SDS011;54941;52.220;104.306;2022-11-25T00:57:36;10.57;;;4.00;;
68140;SDS011;54941;52.220;104.306;2022-11-25T01:00:21;5.68;;;2.30;;
68140;SDS011;54941;52.220;104.306;2022-11-25T01:03:06;8.13;;;2.78;;
68140;SDS011;54941;52.220;104.306;2022-11-25T01:05:52;9.45;;;3.63;;
68140;SDS011;54941;52.220;104.306;2022-11-25T01:08:37;4.80;;;2.67;;
68140;SDS011;54941;52.220;104.306;2022-11-25T01:11:22;6.47;;;2.63;;
68140;SDS011;54941;52.220;104.306;2022-11-25T01:14:08;13.68;;;5.13;;
68140;SDS011;54941;52.220;104.306;2022-11-25T01:16:53;7.63;;;3.50;;
68140;SDS011;54941;52.220;104.306;2022-11-25T01:19:38;11.20;;;4.30;;
68140;SDS011;54941;52.220;104.306;2022-11-25T01:22:24;8.70;;;3.58;;
68140;SDS011;54941;52.220;104.306;2022-11-25T01:25:09;8.82;;;3.85;;
68140;SDS011;54941;52.220;104.306;2022-11-25T01:27:54;9.60;;;3.45;;
68140;SDS011;54941;52.220;104.306;2022-11-25T01:30:39;6.80;;;3.22;;
68140;SDS011;54941;52.220;104.306;2022-11-25T01:33:24;12.50;;;4.78;;
68140;SDS011;54941;52.220;104.306;2022-11-25T01:36:10;15.55;;;7.15;;
68140;SDS011;54941;52.220;104.306;2022-11-25T01:38:58;11.15;;;4.70;;
68140;SDS011;54941;52.220;104.306;2022-11-25T01:41:43;8.43;;;1.98;;
68140;SDS011;54941;52.220;104.306;2022-11-25T01:44:29;6.93;;;3.05;;
68140;SDS011;54941;52.220;104.306;2022-11-25T01:47:15;8.10;;;3.30;;
68140;SDS011;54941;52.220;104.306;2022-11-25T01:50:04;9.73;;;3.45;;
68140;SDS011;54941;52.220;104.306;2022-11-25T01:52:53;7.05;;;3.13;;
68140;SDS011;54941;52.220;104.306;2022-11-25T01:55:41;9.45;;;3.40;;
68140;SDS011;54941;52.220;104.306;2022-11-25T01:58:29;8.15;;;3.13;;
68140;SDS011;54941;52.220;104.306;2022-11-25T02:01:16;6.63;;;2.58;;
68140;SDS011;54941;52.220;104.306;2022-11-25T02:04:01;6.18;;;2.20;;
68140;SDS011;54941;52.220;104.306;2022-11-25T02:06:49;6.18;;;2.80;;
68140;SDS011;54941;52.220;104.306;2022-11-25T02:09:38;7.75;;;2.75;;
68140;SDS011;54941;52.220;104.306;2022-11-25T02:12:27;4.75;;;2.17;;
68140;SDS011;54941;52.220;104.306;2022-11-25T02:15:34;6.28;;;3.00;;
68140;SDS011;54941;52.220;104.306;2022-11-25T02:18:22;5.43;;;2.00;;
68140;SDS011;54941;52.220;104.306;2022-11-25T02:21:09;3.13;;;1.15;;
68140;SDS011;54941;52.220;104.306;2022-11-25T02:23:55;7.32;;;2.55;;
68140;SDS011;54941;52.220;104.306;2022-11-25T02:26:52;3.10;;;1.45;;
68140;SDS011;54941;52.220;104.306;2022-11-25T02:29:37;5.63;;;2.38;;
68140;SDS011;54941;52.220;104.306;2022-11-25T02:32:23;4.35;;;1.55;;
68140;SDS011;54941;52.220;104.306;2022-11-25T02:35:20;4.70;;;2.13;;
68140;SDS011;54941;52.220;104.306;2022-11-25T02:38:09;3.25;;;1.55;;
68140;SDS011;54941;52.220;104.306;2022-11-25T02:40:58;7.80;;;2.95;;
68140;SDS011;54941;52.220;104.306;2022-11-25T02:43:50;7.55;;;3.20;;
68140;SDS011;54941;52.220;104.306;2022-11-25T02:46:36;6.15;;;2.15;;
68140;SDS011;54941;52.220;104.306;2022-11-25T02:49:20;5.00;;;1.92;;
68140;SDS011;54941;52.220;104.306;2022-11-25T02:52:05;2.40;;;1.30;;
68140;SDS011;54941;52.220;104.306;2022-11-25T02:54:50;5.63;;;2.08;;
68140;SDS011;54941;52.220;104.306;2022-11-25T02:57:35;4.13;;;1.55;;
68140;SDS011;54941;52.220;104.306;2022-11-25T03:00:22;4.07;;;1.55;;
68140;SDS011;54941;52.220;104.306;2022-11-25T03:03:07;4.65;;;2.40;;
68140;SDS011;54941;52.220;104.306;2022-11-25T03:05:52;4.15;;;2.13;;
68140;SDS011;54941;52.220;104.306;2022-11-25T03:08:37;5.18;;;1.85;;
68140;SDS011;54941;52.220;104.306;2022-11-25T03:11:22;6.22;;;2.33;;
68140;SDS011;54941;52.220;104.306;2022-11-25T03:14:06;4.90;;;1.35;;
68140;SDS011;54941;52.220;104.306;2022-11-25T03:16:53;4.95;;;1.90;;
68140;SDS011;54941;52.220;104.306;2022-11-25T03:19:38;11.23;;;3.45;;
68140;SDS011;54941;52.220;104.306;2022-11-25T03:22:23;6.97;;;2.95;;
68140;SDS011;54941;52.220;104.306;2022-11-25T03:25:09;4.88;;;1.85;;
68140;SDS011;54941;52.220;104.306;2022-11-25T03:27:54;5.03;;;1.88;;
68140;SDS011;54941;52.220;104.306;2022-11-25T03:30:39;4.68;;;2.33;;
68140;SDS011;54941;52.220;104.306;2022-11-25T03:33:27;2.60;;;1.15;;
68140;SDS011;54941;52.220;104.306;2022-11-25T03:36:13;3.83;;;1.60;;
68140;SDS011;54941;52.220;104.306;2022-11-25T03:38:58;3.00;;;1.63;;
68140;SDS011;54941;52.220;104.306;2022-11-25T03:41:42;4.28;;;1.73;;
68140;SDS011;54941;52.220;104.306;2022-11-25T03:44:27;4.28;;;1.88;;
68140;SDS011;54941;52.220;104.306;2022-11-25T03:47:12;3.10;;;1.33;;
68140;SDS011;54941;52.220;104.306;2022-11-25T03:49:59;4.07;;;1.63;;
68140;SDS011;54941;52.220;104.306;2022-11-25T03:52:44;4.25;;;2.30;;
68140;SDS011;54941;52.220;104.306;2022-11-25T03:55:29;3.85;;;1.75;;
68140;SDS011;54941;52.220;104.306;2022-11-25T03:58:14;4.55;;;1.35;;
68140;SDS011;54941;52.220;104.306;2022-11-25T04:00:59;5.18;;;1.90;;
68140;SDS011;54941;52.220;104.306;2022-11-25T04:03:44;4.25;;;1.60;;
68140;SDS011;54941;52.220;104.306;2022-11-25T04:06:30;3.75;;;1.23;;
68140;SDS011;54941;52.220;104.306;2022-11-25T04:09:16;3.53;;;1.40;;
68140;SDS011;54941;52.220;104.306;2022-11-25T04:12:01;5.13;;;1.48;;
68140;SDS011;54941;52.220;104.306;2022-11-25T04:14:46;4.13;;;1.42;;
68140;SDS011;54941;52.220;104.306;2022-11-25T04:17:31;2.67;;;1.10;;
68140;SDS011;54941;52.220;104.306;2022-11-25T04:20:16;4.93;;;1.60;;
68140;SDS011;54941;52.220;104.306;2022-11-25T04:23:02;3.70;;;1.60;;
68140;SDS011;54941;52.220;104.306;2022-11-25T04:25:48;4.68;;;2.20;;
68140;SDS011;54941;52.220;104.306;2022-11-25T04:28:33;4.15;;;1.52;;
68140;SDS011;54941;52.220;104.306;2022-11-25T04:31:18;6.47;;;2.60;;
68140;SDS011;54941;52.220;104.306;2022-11-25T04:34:03;5.13;;;2.17;;
68140;SDS011;54941;52.220;104.306;2022-11-25T04:36:48;4.78;;;2.10;;
68140;SDS011;54941;52.220;104.306;2022-11-25T04:39:34;3.45;;;1.33;;
68140;SDS011;54941;52.220;104.306;2022-11-25T04:42:20;4.93;;;1.63;;
68140;SDS011;54941;52.220;104.306;2022-11-25T04:45:05;5.60;;;1.88;;
68140;SDS011;54941;52.220;104.306;2022-11-25T04:47:52;4.75;;;1.70;;
68140;SDS011;54941;52.220;104.306;2022-11-25T04:50:37;8.45;;;2.08;;
68140;SDS011;54941;52.220;104.306;2022-11-25T04:53:22;5.18;;;1.40;;
68140;SDS011;54941;52.220;104.306;2022-11-25T04:56:09;4.07;;;1.65;;
68140;SDS011;54941;52.220;104.306;2022-11-25T04:59:00;2.67;;;1.00;;
68140;SDS011;54941;52.220;104.306;2022-11-25T05:01:45;4.28;;;1.85;;
68140;SDS011;54941;52.220;104.306;2022-11-25T05:04:30;3.85;;;1.13;;
68140;SDS011;54941;52.220;104.306;2022-11-25T05:07:15;5.03;;;1.95;;
68140;SDS011;54941;52.220;104.306;2022-11-25T05:10:01;2.90;;;1.23;;
68140;SDS011;54941;52.220;104.306;2022-11-25T05:12:49;10.00;;;4.15;;
68140;SDS011;54941;52.220;104.306;2022-11-25T05:15:34;10.10;;;3.92;;
68140;SDS011;54941;52.220;104.306;2022-11-25T05:18:19;5.55;;;1.88;;
68140;SDS011;54941;52.220;104.306;2022-11-25T05:21:04;4.45;;;1.65;;
68140;SDS011;54941;52.220;104.306;2022-11-25T05:23:49;5.38;;;1.77;;
68140;SDS011;54941;52.220;104.306;2022-11-25T05:26:34;6.03;;;2.33;;
68140;SDS011;54941;52.220;104.306;2022-11-25T05:29:21;3.58;;;1.42;;
68140;SDS011;54941;52.220;104.306;2022-11-25T05:32:06;4.13;;;2.05;;
68140;SDS011;54941;52.220;104.306;2022-11-25T05:34:51;8.32;;;1.63;;
68140;SDS011;54941;52.220;104.306;2022-11-25T05:37:36;3.63;;;1.42;;
68140;SDS011;54941;52.220;104.306;2022-11-25T05:40:21;4.15;;;1.90;;
68140;SDS011;54941;52.220;104.306;2022-11-25T05:43:06;5.57;;;2.17;;
68140;SDS011;54941;52.220;104.306;2022-11-25T05:45:52;5.00;;;1.92;;
68140;SDS011;54941;52.220;104.306;2022-11-25T05:48:38;4.65;;;1.77;;
68140;SDS011;54941;52.220;104.306;2022-11-25T05:51:23;4.20;;;1.80;;
68140;SDS011;54941;52.220;104.306;2022-11-25T05:54:08;3.42;;;1.00;;
68140;SDS011;54941;52.220;104.306;2022-11-25T05:56:53;5.28;;;2.13;;
68140;SDS011;54941;52.220;104.306;2022-11-25T05:59:38;2.20;;;1.10;;
68140;SDS011;54941;52.220;104.306;2022-11-25T06:02:25;6.88;;;2.83;;
68140;SDS011;54941;52.220;104.306;2022-11-25T06:05:10;7.53;;;2.60;;
68140;SDS011;54941;52.220;104.306;2022-11-25T06:07:55;4.93;;;2.20;;
68140;SDS011;54941;52.220;104.306;2022-11-25T06:10:40;4.72;;;1.45;;
68140;SDS011;54941;52.220;104.306;2022-11-25T06:13:25;6.25;;;2.08;;
68140;SDS011;54941;52.220;104.306;2022-11-25T06:16:10;4.65;;;2.28;;
68140;SDS011;54941;52.220;104.306;2022-11-25T06:18:58;4.57;;;1.73;;
68140;SDS011;54941;52.220;104.306;2022-11-25T06:21:45;5.22;;;1.73;;
68140;SDS011;54941;52.220;104.306;2022-11-25T06:24:30;3.60;;;1.58;;
68140;SDS011;54941;52.220;104.306;2022-11-25T06:27:15;4.00;;;1.35;;
68140;SDS011;54941;52.220;104.306;2022-11-25T06:30:00;5.72;;;2.05;;
68140;SDS011;54941;52.220;104.306;2022-11-25T06:32:45;4.22;;;1.50;;
68140;SDS011;54941;52.220;104.306;2022-11-25T06:35:31;4.30;;;1.73;;
68140;SDS011;54941;52.220;104.306;2022-11-25T06:38:16;6.90;;;1.83;;
68140;SDS011;54941;52.220;104.306;2022-11-25T06:41:01;3.83;;;1.92;;
68140;SDS011;54941;52.220;104.306;2022-11-25T06:43:48;5.88;;;1.88;;
68140;SDS011;54941;52.220;104.306;2022-11-25T06:46:33;5.28;;;2.17;;
68140;SDS011;54941;52.220;104.306;2022-11-25T06:49:18;7.35;;;2.80;;
68140;SDS011;54941;52.220;104.306;2022-11-25T06:52:04;19.83;;;7.63;;
68140;SDS011;54941;52.220;104.306;2022-11-25T06:54:49;8.00;;;2.75;;
68140;SDS011;54941;52.220;104.306;2022-11-25T06:57:34;6.55;;;2.33;;
68140;SDS011;54941;52.220;104.306;2022-11-25T07:00:20;6.90;;;2.22;;
68140;SDS011;54941;52.220;104.306;2022-11-25T07:03:05;4.85;;;1.83;;
68140;SDS011;54941;52.220;104.306;2022-11-25T07:05:50;4.45;;;1.75;;
68140;SDS011;54941;52.220;104.306;2022-11-25T07:08:36;3.83;;;1.58;;
68140;SDS011;54941;52.220;104.306;2022-11-25T07:11:22;3.42;;;1.48;;
68140;SDS011;54941;52.220;104.306;2022-11-25T07:14:09;3.30;;;1.35;;
68140;SDS011;54941;52.220;104.306;2022-11-25T07:16:55;4.97;;;1.58;;
68140;SDS011;54941;52.220;104.306;2022-11-25T07:19:40;4.32;;;2.03;;
68140;SDS011;54941;52.220;104.306;2022-11-25T07:22:25;4.60;;;1.77;;
68140;SDS011;54941;52.220;104.306;2022-11-25T07:25:11;4.68;;;1.73;;
68140;SDS011;54941;52.220;104.306;2022-11-25T07:27:57;3.55;;;1.20;;
68140;SDS011;54941;52.220;104.306;2022-11-25T07:30:42;4.82;;;2.50;;
68140;SDS011;54941;52.220;104.306;2022-11-25T07:33:27;5.22;;;2.22;;
68140;SDS011;54941;52.220;104.306;2022-11-25T07:36:12;5.45;;;2.00;;
68140;SDS011;54941;52.220;104.306;2022-11-25T07:38:58;5.55;;;2.33;;
68140;SDS011;54941;52.220;104.306;2022-11-25T07:41:47;4.18;;;1.67;;
68140;SDS011;54941;52.220;104.306;2022-11-25T07:44:32;3.85;;;1.77;;
68140;SDS011;54941;52.220;104.306;2022-11-25T07:47:17;3.70;;;1.50;;
68140;SDS011;54941;52.220;104.306;2022-11-25T07:50:02;4.55;;;2.15;;
68140;SDS011;54941;52.220;104.306;2022-11-25T07:52:48;4.65;;;1.73;;
68140;SDS011;54941;52.220;104.306;2022-11-25T07:55:33;5.15;;;2.33;;
68140;SDS011;54941;52.220;104.306;2022-11-25T07:58:19;9.43;;;2.25;;
68140;SDS011;54941;52.220;104.306;2022-11-25T08:01:04;5.82;;;2.17;;
68140;SDS011;54941;52.220;104.306;2022-11-25T08:03:50;3.10;;;1.52;;
68140;SDS011;54941;52.220;104.306;2022-11-25T08:06:37;4.03;;;2.05;;
68140;SDS011;54941;52.220;104.306;2022-11-25T08:09:24;4.10;;;1.80;;
68140;SDS011;54941;52.220;104.306;2022-11-25T08:12:09;4.22;;;1.80;;
68140;SDS011;54941;52.220;104.306;2022-11-25T08:14:55;3.58;;;1.67;;
68140;SDS011;54941;52.220;104.306;2022-11-25T08:17:40;8.30;;;3.08;;
68140;SDS011;54941;52.220;104.306;2022-11-25T08:20:25;8.10;;;3.30;;
68140;SDS011;54941;52.220;104.306;2022-11-25T08:23:10;6.18;;;2.53;;
68140;SDS011;54941;52.220;104.306;2022-11-25T08:25:55;9.93;;;2.92;;
68140;SDS011;54941;52.220;104.306;2022-11-25T08:28:40;3.47;;;1.60;;
68140;SDS011;54941;52.220;104.306;2022-11-25T08:31:27;8.35;;;4.30;;
68140;SDS011;54941;52.220;104.306;2022-11-25T08:34:16;7.55;;;3.95;;
68140;SDS011;54941;52.220;104.306;2022-11-25T08:37:02;11.20;;;4.85;;
68140;SDS011;54941;52.220;104.306;2022-11-25T08:39:48;12.57;;;3.65;;
68140;SDS011;54941;52.220;104.306;2022-11-25T08:42:33;19.00;;;6.32;;
68140;SDS011;54941;52.220;104.306;2022-11-25T08:45:18;9.52;;;3.08;;
68140;SDS011;54941;52.220;104.306;2022-11-25T08:48:04;13.88;;;5.28;;
68140;SDS011;54941;52.220;104.306;2022-11-25T08:50:51;10.27;;;3.85;;
68140;SDS011;54941;52.220;104.306;2022-11-25T08:53:38;5.93;;;2.67;;
68140;SDS011;54941;52.220;104.306;2022-11-25T08:56:23;7.68;;;2.20;;
68140;SDS011;54941;52.220;104.306;2022-11-25T08:59:09;11.20;;;5.40;;
68140;SDS011;54941;52.220;104.306;2022-11-25T09:01:54;6.40;;;2.33;;
68140;SDS011;54941;52.220;104.306;2022-11-25T09:04:40;5.70;;;2.15;;
68140;SDS011;54941;52.220;104.306;2022-11-25T09:07:25;7.80;;;3.03;;
68140;SDS011;54941;52.220;104.306;2022-11-25T09:10:13;10.73;;;3.70;;
68140;SDS011;54941;52.220;104.306;2022-11-25T09:12:59;5.07;;;2.08;;
68140;SDS011;54941;52.220;104.306;2022-11-25T09:15:44;5.15;;;2.05;;
68140;SDS011;54941;52.220;104.306;2022-11-25T09:18:29;8.43;;;3.75;;
68140;SDS011;54941;52.220;104.306;2022-11-25T09:21:16;10.35;;;4.45;;
68140;SDS011;54941;52.220;104.306;2022-11-25T09:24:01;12.88;;;4.75;;
68140;SDS011;54941;52.220;104.306;2022-11-25T09:26:46;11.00;;;4.28;;
68140;SDS011;54941;52.220;104.306;2022-11-25T09:29:31;7.05;;;2.67;;
68140;SDS011;54941;52.220;104.306;2022-11-25T09:32:16;5.28;;;2.95;;
68140;SDS011;54941;52.220;104.306;2022-11-25T09:35:01;7.95;;;3.30;;
68140;SDS011;54941;52.220;104.306;2022-11-25T09:37:49;8.80;;;2.83;;
68140;SDS011;54941;52.220;104.306;2022-11-25T09:40:35;8.18;;;3.40;;
68140;SDS011;54941;52.220;104.306;2022-11-25T09:43:30;15.68;;;6.47;;
68140;SDS011;54941;52.220;104.306;2022-11-25T09:46:36;10.55;;;4.30;;
68140;SDS011;54941;52.220;104.306;2022-11-25T09:49:38;5.18;;;2.75;;
68140;SDS011;54941;52.220;104.306;2022-11-25T09:52:34;7.65;;;2.80;;
68140;SDS011;54941;52.220;104.306;2022-11-25T09:55:24;6.05;;;2.47;;
68140;SDS011;54941;52.220;104.306;2022-11-25T09:58:17;11.85;;;4.95;;
68140;SDS011;54941;52.220;104.306;2022-11-25T10:01:11;11.95;;;4.65;;
68140;SDS011;54941;52.220;104.306;2022-11-25T10:04:00;12.00;;;3.63;;
68140;SDS011;54941;52.220;104.306;2022-11-25T10:06:49;14.10;;;5.47;;
68140;SDS011;54941;52.220;104.306;2022-11-25T10:09:37;9.18;;;3.78;;
68140;SDS011;54941;52.220;104.306;2022-11-25T10:12:25;10.80;;;4.10;;
68140;SDS011;54941;52.220;104.306;2022-11-25T10:15:15;6.25;;;2.70;;
68140;SDS011;54941;52.220;104.306;2022-11-25T10:18:05;17.23;;;6.68;;
68140;SDS011;54941;52.220;104.306;2022-11-25T10:20:58;11.07;;;5.18;;
68140;SDS011;54941;52.220;104.306;2022-11-25T10:23:43;14.15;;;6.22;;
68140;SDS011;54941;52.220;104.306;2022-11-25T10:26:29;15.10;;;7.35;;
68140;SDS011;54941;52.220;104.306;2022-11-25T10:29:24;11.95;;;5.60;;
68140;SDS011;54941;52.220;104.306;2022-11-25T10:32:15;12.25;;;5.57;;
68140;SDS011;54941;52.220;104.306;2022-11-25T10:35:06;12.32;;;5.32;;
68140;SDS011;54941;52.220;104.306;2022-11-25T10:38:00;9.65;;;4.18;;
68140;SDS011;54941;52.220;104.306;2022-11-25T10:40:50;12.20;;;3.72;;
68140;SDS011;54941;52.220;104.306;2022-11-25T10:43:37;7.80;;;4.38;;
68140;SDS011;54941;52.220;104.306;2022-11-25T10:46:28;11.68;;;5.75;;
68140;SDS011;54941;52.220;104.306;2022-11-25T10:49:22;8.32;;;3.60;;
68140;SDS011;54941;52.220;104.306;2022-11-25T10:52:15;14.80;;;4.15;;
68140;SDS011;54941;52.220;104.306;2022-11-25T10:55:09;12.15;;;4.55;;
68140;SDS011;54941;52.220;104.306;2022-11-25T10:57:56;11.35;;;5.22;;
68140;SDS011;54941;52.220;104.306;2022-11-25T11:00:41;11.43;;;4.78;;
68140;SDS011;54941;52.220;104.306;2022-11-25T11:03:28;12.90;;;4.38;;
68140;SDS011;54941;52.220;104.306;2022-11-25T11:06:29;12.82;;;4.22;;
68140;SDS011;54941;52.220;104.306;2022-11-25T11:09:29;19.80;;;7.10;;
68140;SDS011;54941;52.220;104.306;2022-11-25T11:12:17;17.00;;;5.97;;
68140;SDS011;54941;52.220;104.306;2022-11-25T11:15:13;27.63;;;10.75;;
68140;SDS011;54941;52.220;104.306;2022-11-25T11:18:12;22.52;;;8.50;;
68140;SDS011;54941;52.220;104.306;2022-11-25T11:21:05;16.42;;;6.60;;
68140;SDS011;54941;52.220;104.306;2022-11-25T11:24:20;10.77;;;5.50;;
68140;SDS011;54941;52.220;104.306;2022-11-25T11:27:13;5.95;;;2.78;;
68140;SDS011;54941;52.220;104.306;2022-11-25T11:30:13;9.98;;;3.65;;
68140;SDS011;54941;52.220;104.306;2022-11-25T11:33:02;8.40;;;2.47;;
68140;SDS011;54941;52.220;104.306;2022-11-25T11:35:49;11.00;;;4.25;;
68140;SDS011;54941;52.220;104.306;2022-11-25T11:38:46;14.50;;;5.28;;
68140;SDS011;54941;52.220;104.306;2022-11-25T11:41:38;7.97;;;3.95;;
68140;SDS011;54941;52.220;104.306;2022-11-25T11:44:27;10.35;;;4.53;;
68140;SDS011;54941;52.220;104.306;2022-11-25T11:47:22;8.90;;;3.47;;
68140;SDS011;54941;52.220;104.306;2022-11-25T11:50:20;9.73;;;3.80;;
68140;SDS011;54941;52.220;104.306;2022-11-25T11:53:09;6.57;;;3.05;;
68140;SDS011;54941;52.220;104.306;2022-11-25T11:56:03;4.65;;;2.75;;
68140;SDS011;54941;52.220;104.306;2022-11-25T11:58:57;11.13;;;5.30;;
68140;SDS011;54941;52.220;104.306;2022-11-25T12:01:55;9.48;;;4.80;;
68140;SDS011;54941;52.220;104.306;2022-11-25T12:05:00;9.30;;;4.18;;
68140;SDS011;54941;52.220;104.306;2022-11-25T12:07:58;12.05;;;5.57;;
68140;SDS011;54941;52.220;104.306;2022-11-25T12:10:51;16.25;;;6.63;;
68140;SDS011;54941;52.220;104.306;2022-11-25T12:13:41;6.07;;;2.88;;
68140;SDS011;54941;52.220;104.306;2022-11-25T12:16:32;13.57;;;4.85;;
68140;SDS011;54941;52.220;104.306;2022-11-25T12:19:22;40.33;;;12.95;;
68140;SDS011;54941;52.220;104.306;2022-11-25T12:22:16;57.53;;;18.85;;
68140;SDS011;54941;52.220;104.306;2022-11-25T12:25:05;35.33;;;12.38;;
68140;SDS011;54941;52.220;104.306;2022-11-25T12:27:56;51.45;;;17.30;;
68140;SDS011;54941;52.220;104.306;2022-11-25T12:30:52;24.17;;;9.20;;
68140;SDS011;54941;52.220;104.306;2022-11-25T12:33:51;15.95;;;6.43;;
68140;SDS011;54941;52.220;104.306;2022-11-25T12:36:43;17.77;;;5.93;;
68140;SDS011;54941;52.220;104.306;2022-11-25T12:39:31;20.80;;;8.13;;
68140;SDS011;54941;52.220;104.306;2022-11-25T12:42:23;19.60;;;7.05;;
68140;SDS011;54941;52.220;104.306;2022-11-25T12:45:10;25.48;;;8.45;;
68140;SDS011;54941;52.220;104.306;2022-11-25T12:48:02;17.77;;;6.70;;
68140;SDS011;54941;52.220;104.306;2022-11-25T12:50:50;12.60;;;4.80;;
68140;SDS011;54941;52.220;104.306;2022-11-25T12:53:44;10.07;;;4.32;;
68140;SDS011;54941;52.220;104.306;2022-11-25T12:56:47;11.55;;;4.10;;
68140;SDS011;54941;52.220;104.306;2022-11-25T12:59:56;10.40;;;3.80;;
68140;SDS011;54941;52.220;104.306;2022-11-25T13:03:08;7.85;;;3.65;;
68140;SDS011;54941;52.220;104.306;2022-11-25T13:06:15;7.05;;;2.70;;
68140;SDS011;54941;52.220;104.306;2022-11-25T13:09:26;8.02;;;3.42;;
68140;SDS011;54941;52.220;104.306;2022-11-25T13:12:31;5.70;;;2.40;;
68140;SDS011;54941;52.220;104.306;2022-11-25T13:15:25;10.50;;;4.25;;
68140;SDS011;54941;52.220;104.306;2022-11-25T13:18:14;14.13;;;5.40;;
68140;SDS011;54941;52.220;104.306;2022-11-25T13:21:07;16.83;;;6.47;;
68140;SDS011;54941;52.220;104.306;2022-11-25T13:23:54;17.52;;;6.97;;
68140;SDS011;54941;52.220;104.306;2022-11-25T13:26:46;14.40;;;4.88;;
68140;SDS011;54941;52.220;104.306;2022-11-25T13:32:45;9.82;;;3.90;;
68140;SDS011;54941;52.220;104.306;2022-11-25T13:35:32;19.40;;;7.78;;
68140;SDS011;54941;52.220;104.306;2022-11-25T13:41:57;10.02;;;4.82;;
68140;SDS011;54941;52.220;104.306;2022-11-25T13:44:48;8.35;;;4.15;;
68140;SDS011;54941;52.220;104.306;2022-11-25T13:47:35;7.53;;;2.83;;
68140;SDS011;54941;52.220;104.306;2022-11-25T13:50:23;8.93;;;2.85;;
68140;SDS011;54941;52.220;104.306;2022-11-25T13:53:17;4.78;;;2.25;;
68140;SDS011;54941;52.220;104.306;2022-11-25T13:56:11;4.78;;;2.53;;
68140;SDS011;54941;52.220;104.306;2022-11-25T14:02:30;14.95;;;4.97;;
68140;SDS011;54941;52.220;104.306;2022-11-25T14:08:34;7.32;;;2.55;;
68140;SDS011;54941;52.220;104.306;2022-11-25T14:11:48;10.75;;;3.83;;
68140;SDS011;54941;52.220;104.306;2022-11-25T14:14:58;6.28;;;2.88;;
68140;SDS011;54941;52.220;104.306;2022-11-25T14:18:06;5.00;;;2.60;;
68140;SDS011;54941;52.220;104.306;2022-11-25T14:21:13;4.22;;;2.33;;
68140;SDS011;54941;52.220;104.306;2022-11-25T14:24:12;6.05;;;2.53;;
68140;SDS011;54941;52.220;104.306;2022-11-25T14:27:10;5.97;;;2.92;;
68140;SDS011;54941;52.220;104.306;2022-11-25T14:29:58;6.95;;;2.28;;
68140;SDS011;54941;52.220;104.306;2022-11-25T14:32:50;5.28;;;2.42;;
68140;SDS011;54941;52.220;104.306;2022-11-25T14:35:39;7.57;;;2.75;;
68140;SDS011;54941;52.220;104.306;2022-11-25T14:38:27;9.27;;;3.35;;
68140;SDS011;54941;52.220;104.306;2022-11-25T14:41:27;5.70;;;2.30;;
68140;SDS011;54941;52.220;104.306;2022-11-25T14:44:16;5.72;;;2.45;;
68140;SDS011;54941;52.220;104.306;2022-11-25T14:47:05;4.45;;;1.67;;
68140;SDS011;54941;52.220;104.306;2022-11-25T14:49:50;4.60;;;2.20;;
68140;SDS011;54941;52.220;104.306;2022-11-25T14:52:36;5.38;;;2.28;;
68140;SDS011;54941;52.220;104.306;2022-11-25T14:55:25;4.40;;;1.73;;
68140;SDS011;54941;52.220;104.306;2022-11-25T14:58:15;5.65;;;2.10;;
68140;SDS011;54941;52.220;104.306;2022-11-25T15:01:00;2.83;;;1.40;;
68140;SDS011;54941;52.220;104.306;2022-11-25T15:03:50;3.58;;;1.73;;
68140;SDS011;54941;52.220;104.306;2022-11-25T15:06:46;6.00;;;2.00;;
68140;SDS011;54941;52.220;104.306;2022-11-25T15:09:36;7.10;;;3.75;;
68140;SDS011;54941;52.220;104.306;2022-11-25T15:12:26;9.43;;;4.50;;
68140;SDS011;54941;52.220;104.306;2022-11-25T15:15:16;6.43;;;2.72;;
68140;SDS011;54941;52.220;104.306;2022-11-25T15:18:03;6.22;;;2.47;;
68140;SDS011;54941;52.220;104.306;2022-11-25T15:20:49;7.47;;;2.05;;
68140;SDS011;54941;52.220;104.306;2022-11-25T15:23:38;5.68;;;2.05;;
68140;SDS011;54941;52.220;104.306;2022-11-25T15:26:25;4.45;;;1.95;;
68140;SDS011;54941;52.220;104.306;2022-11-25T15:29:11;6.47;;;2.63;;
68140;SDS011;54941;52.220;104.306;2022-11-25T15:31:58;7.75;;;2.55;;
68140;SDS011;54941;52.220;104.306;2022-11-25T15:34:43;5.93;;;2.28;;
68140;SDS011;54941;52.220;104.306;2022-11-25T15:37:29;4.10;;;2.22;;
68140;SDS011;54941;52.220;104.306;2022-11-25T15:40:28;4.90;;;2.28;;
68140;SDS011;54941;52.220;104.306;2022-11-25T15:43:19;5.60;;;2.35;;
68140;SDS011;54941;52.220;104.306;2022-11-25T15:46:07;5.82;;;2.28;;
68140;SDS011;54941;52.220;104.306;2022-11-25T15:48:54;11.13;;;2.22;;
68140;SDS011;54941;52.220;104.306;2022-11-25T15:51:42;7.63;;;2.95;;
68140;SDS011;54941;52.220;104.306;2022-11-25T15:54:37;8.95;;;3.17;;
68140;SDS011;54941;52.220;104.306;2022-11-25T15:57:26;6.65;;;2.67;;
68140;SDS011;54941;52.220;104.306;2022-11-25T16:00:14;5.75;;;2.03;;
68140;SDS011;54941;52.220;104.306;2022-11-25T16:03:01;4.63;;;1.85;;
68140;SDS011;54941;52.220;104.306;2022-11-25T16:05:52;4.50;;;2.17;;
68140;SDS011;54941;52.220;104.306;2022-11-25T16:08:38;5.65;;;1.95;;
68140;SDS011;54941;52.220;104.306;2022-11-25T16:11:23;5.97;;;1.70;;
68140;SDS011;54941;52.220;104.306;2022-11-25T16:14:16;3.13;;;1.63;;
68140;SDS011;54941;52.220;104.306;2022-11-25T16:17:08;5.97;;;2.17;;
68140;SDS011;54941;52.220;104.306;2022-11-25T16:19:55;7.63;;;2.28;;
68140;SDS011;54941;52.220;104.306;2022-11-25T16:22:41;5.95;;;2.25;;
68140;SDS011;54941;52.220;104.306;2022-11-25T16:25:26;7.63;;;2.28;;
68140;SDS011;54941;52.220;104.306;2022-11-25T16:28:15;4.40;;;2.00;;
68140;SDS011;54941;52.220;104.306;2022-11-25T16:31:02;6.55;;;2.08;;
68140;SDS011;54941;52.220;104.306;2022-11-25T16:33:47;5.15;;;1.83;;
68140;SDS011;54941;52.220;104.306;2022-11-25T16:36:33;5.18;;;2.33;;